createdAt,value
2022-08-12T00:02:05.107Z,21.55
2022-08-12T00:04:51.987Z,21.21
2022-08-12T00:07:38.125Z,21.39
2022-08-12T00:10:24.195Z,21.68
2022-08-12T00:13:10.198Z,21.75
2022-08-12T00:15:57.438Z,21.87
2022-08-12T00:18:42.924Z,21.86
2022-08-12T00:21:30.045Z,21.69
2022-08-12T00:24:16.793Z,21.29
2022-08-12T00:27:02.411Z,21.06
2022-08-12T00:29:48.360Z,21.09
2022-08-12T00:32:36.650Z,21.03
2022-08-12T00:35:24.426Z,21.27
2022-08-12T00:38:20.085Z,21.47
2022-08-12T00:41:06.053Z,21.40
2022-08-12T00:43:35.180Z,20.96
2022-08-12T00:46:22.263Z,20.97
2022-08-12T00:48:52.312Z,20.80
2022-08-12T00:51:20.997Z,21.00
2022-08-12T00:53:49.183Z,21.07
2022-08-12T00:56:17.687Z,21.29
2022-08-12T00:58:48.637Z,21.40
2022-08-12T01:01:17.829Z,21.57
2022-08-12T01:04:07.177Z,21.30
2022-08-12T01:06:54.308Z,21.18
2022-08-12T01:09:52.424Z,21.06
2022-08-12T01:12:21.068Z,20.84
2022-08-12T01:14:49.444Z,21.12
2022-08-12T01:17:17.709Z,20.91
2022-08-12T01:19:48.510Z,20.62
2022-08-12T01:22:25.340Z,20.46
2022-08-12T01:25:04.517Z,20.53
2022-08-12T01:27:34.536Z,20.68
2022-08-12T01:30:03.880Z,20.66
2022-08-12T01:32:36.246Z,20.84
2022-08-12T01:35:07.115Z,20.92
2022-08-12T01:37:37.972Z,20.85
2022-08-12T01:40:31.647Z,20.72
2022-08-12T01:43:01.746Z,20.56
2022-08-12T01:45:43.010Z,20.44
2022-08-12T01:48:16.976Z,20.53
2022-08-12T01:50:51.735Z,20.64
2022-08-12T01:53:21.020Z,20.62
2022-08-12T01:55:51.509Z,20.57
2022-08-12T01:58:26.974Z,20.63
2022-08-12T02:00:59.422Z,20.60
2022-08-12T02:03:55.160Z,20.71
2022-08-12T02:06:44.118Z,21.15
2022-08-12T02:09:32.688Z,21.71
2022-08-12T02:12:10.652Z,22.45
2022-08-12T02:14:51.156Z,22.98
2022-08-12T02:17:55.449Z,23.30
2022-08-12T02:20:22.036Z,23.65
2022-08-12T02:22:51.790Z,24.95
2022-08-12T02:25:22.591Z,25.73
2022-08-12T02:27:53.007Z,26.71
2022-08-12T02:30:22.388Z,27.33
2022-08-12T02:32:51.620Z,28.25
2022-08-12T02:35:20.530Z,29.03
2022-08-12T02:37:49.683Z,30.27
2022-08-12T02:40:18.868Z,31.27
2022-08-12T02:42:51.517Z,31.90
2022-08-12T02:45:24.202Z,31.22
2022-08-12T02:48:00.718Z,31.27
2022-08-12T02:50:30.355Z,31.25
2022-08-12T02:52:59.107Z,30.99
2022-08-12T02:55:34.897Z,30.84
2022-08-12T02:58:06.942Z,31.64
2022-08-12T03:00:39.194Z,32.06
2022-08-12T03:03:08.904Z,32.24
2022-08-12T03:05:44.374Z,31.97
2022-08-12T03:08:17.493Z,31.62
2022-08-12T03:11:03.417Z,31.51
2022-08-12T03:13:36.659Z,28.95
2022-08-12T03:16:07.813Z,27.32
2022-08-12T03:18:36.364Z,28.09
2022-08-12T03:21:05.339Z,28.17
2022-08-12T03:23:33.522Z,28.18
2022-08-12T03:26:02.873Z,27.65
2022-08-12T03:28:50.520Z,26.86
2022-08-12T03:31:21.282Z,25.41
2022-08-12T03:34:01.503Z,24.23
2022-08-12T03:36:31.973Z,22.99
2022-08-12T03:39:35.810Z,22.97
2022-08-12T03:42:13.476Z,22.38
2022-08-12T03:45:01.664Z,22.01
2022-08-12T03:47:52.616Z,22.08
2022-08-12T03:50:39.154Z,21.91
2022-08-12T03:53:27.219Z,21.80
2022-08-12T03:56:13.603Z,21.91
2022-08-12T03:58:59.868Z,21.88
2022-08-12T04:01:28.279Z,21.85
2022-08-12T04:03:58.192Z,22.03
2022-08-12T04:06:35.229Z,22.19
2022-08-12T04:09:16.588Z,22.33
2022-08-12T04:12:03.190Z,22.05
2022-08-12T04:14:31.809Z,22.45
2022-08-12T04:17:00.132Z,22.44
2022-08-12T04:19:30.051Z,22.74
2022-08-12T04:22:02.429Z,22.69
2022-08-12T04:24:35.594Z,23.08
2022-08-12T04:27:05.561Z,23.51
2022-08-12T04:30:29.787Z,23.59
2022-08-12T04:32:23.024Z,23.51
2022-08-12T04:34:53.357Z,23.74
2022-08-12T04:37:21.704Z,23.83
2022-08-12T04:39:50.436Z,23.67
2022-08-12T04:42:18.752Z,23.91
2022-08-12T04:44:47.105Z,24.04
2022-08-12T04:47:16.649Z,24.35
2022-08-12T04:49:45.930Z,24.41
2022-08-12T04:52:15.954Z,24.38
2022-08-12T04:54:44.944Z,24.40
2022-08-12T04:57:13.360Z,24.59
2022-08-12T04:59:47.950Z,24.70
2022-08-12T05:02:21.428Z,24.83
2022-08-12T05:04:51.411Z,24.87
2022-08-12T05:07:21.015Z,24.89
2022-08-12T05:10:00.362Z,25.09
2022-08-12T05:12:36.886Z,25.21
2022-08-12T05:15:19.538Z,25.24
2022-08-12T05:17:55.716Z,25.40
2022-08-12T05:20:26.256Z,25.58
2022-08-12T05:23:12.646Z,25.58
2022-08-12T05:25:43.449Z,25.53
2022-08-12T05:28:13.206Z,25.64
2022-08-12T05:30:42.774Z,25.69
2022-08-12T05:33:11.686Z,25.77
2022-08-12T05:35:41.796Z,25.83
2022-08-12T05:38:29.710Z,25.75
2022-08-12T05:40:58.146Z,25.90
2022-08-12T05:43:27.617Z,26.88
2022-08-12T05:45:56.001Z,26.60
2022-08-12T05:48:24.555Z,25.83
2022-08-12T05:50:53.881Z,25.99
2022-08-12T05:53:24.034Z,26.09
2022-08-12T05:55:54.206Z,26.30
2022-08-12T05:58:22.522Z,26.56
2022-08-12T06:00:50.790Z,26.29
2022-08-12T06:03:19.508Z,25.83
2022-08-12T06:05:55.041Z,26.24
2022-08-12T06:08:26.297Z,26.96
2022-08-12T06:10:57.281Z,26.70
2022-08-12T06:13:52.657Z,26.27
2022-08-12T06:16:16.288Z,27.37
2022-08-12T06:18:45.052Z,27.36
2022-08-12T06:21:14.762Z,26.70
2022-08-12T06:23:48.558Z,26.41
2022-08-12T06:26:20.350Z,26.48
2022-08-12T06:28:52.424Z,26.92
2022-08-12T06:31:28.246Z,27.07
2022-08-12T06:34:00.596Z,27.18
2022-08-12T06:36:45.123Z,26.96
2022-08-12T06:39:15.952Z,27.91
2022-08-12T06:42:02.721Z,28.25
2022-08-12T06:44:50.789Z,27.93
2022-08-12T06:47:19.842Z,27.88
2022-08-12T06:49:50.329Z,27.99
2022-08-12T06:52:21.696Z,28.28
2022-08-12T06:54:53.650Z,28.42
2022-08-12T06:57:59.777Z,28.95
2022-08-12T07:00:18.168Z,28.69
2022-08-12T07:02:46.944Z,29.23
2022-08-12T07:05:15.286Z,29.20
2022-08-12T07:07:46.629Z,28.46
2022-08-12T07:10:16.281Z,27.99
2022-08-12T07:12:45.371Z,27.55
2022-08-12T07:15:13.654Z,27.16
2022-08-12T07:17:42.208Z,27.91
2022-08-12T07:20:35.822Z,29.06
2022-08-12T07:23:01.619Z,28.03
2022-08-12T07:25:40.322Z,27.37
2022-08-12T07:28:16.356Z,28.04
2022-08-12T07:30:46.272Z,28.72
2022-08-12T07:33:28.151Z,29.08
2022-08-12T07:35:57.743Z,29.48
2022-08-12T07:38:29.125Z,29.28
2022-08-12T07:41:07.756Z,29.88
2022-08-12T07:43:48.369Z,28.84
2022-08-12T07:46:19.642Z,29.95
2022-08-12T07:48:49.216Z,28.79
2022-08-12T07:51:24.780Z,29.54
2022-08-12T07:54:16.956Z,29.30
2022-08-12T07:56:55.286Z,29.25
2022-08-12T07:59:24.593Z,28.96
2022-08-12T08:01:54.169Z,29.07
2022-08-12T08:04:48.291Z,29.13
2022-08-12T08:07:17.135Z,28.14
2022-08-12T08:09:45.328Z,28.77
2022-08-12T08:12:41.463Z,28.84
2022-08-12T08:15:38.710Z,27.84
2022-08-12T08:18:26.863Z,27.53
2022-08-12T08:20:57.013Z,28.95
2022-08-12T08:23:46.989Z,28.87
2022-08-12T08:26:27.223Z,28.53
2022-08-12T08:28:57.079Z,28.25
2022-08-12T08:34:54.031Z,28.54
2022-08-12T08:37:22.911Z,28.68
2022-08-12T08:39:51.693Z,28.46
2022-08-12T08:42:40.651Z,29.14
2022-08-12T08:45:13.214Z,30.13
2022-08-12T08:47:44.479Z,29.30
2022-08-12T08:50:15.444Z,28.63
2022-08-12T08:52:43.870Z,29.59
2022-08-12T08:55:14.144Z,28.45
2022-08-12T08:57:44.737Z,28.52
2022-08-12T09:00:19.007Z,29.51
2022-08-12T09:02:49.039Z,29.04
2022-08-12T09:05:27.482Z,28.36
2022-08-12T09:08:11.920Z,28.62
2022-08-12T09:10:49.728Z,28.20
2022-08-12T09:16:19.982Z,28.17
2022-08-12T09:18:52.127Z,28.97
2022-08-12T09:21:23.070Z,30.16
2022-08-12T09:24:07.555Z,29.20
2022-08-12T09:26:45.871Z,28.83
2022-08-12T09:29:15.228Z,29.35
2022-08-12T09:32:06.442Z,29.22
2022-08-12T09:34:36.305Z,29.12
2022-08-12T09:37:19.950Z,29.10
2022-08-12T09:40:05.245Z,28.88
2022-08-12T09:43:16.054Z,29.49
2022-08-12T09:46:20.332Z,29.83
2022-08-12T09:48:39.352Z,30.24
2022-08-12T09:51:22.022Z,29.84
2022-08-12T09:54:08.441Z,29.09
2022-08-12T09:56:58.036Z,30.07
2022-08-12T10:00:14.810Z,29.83
2022-08-12T10:02:42.650Z,29.66
2022-08-12T10:05:13.090Z,29.20
2022-08-12T10:07:42.702Z,29.66
2022-08-12T10:10:23.995Z,29.60
2022-08-12T10:13:11.416Z,29.13
2022-08-12T10:16:02.772Z,29.49
2022-08-12T10:18:35.734Z,29.23
2022-08-12T10:21:08.652Z,29.75
2022-08-12T10:23:39.454Z,30.79
2022-08-12T10:26:36.838Z,29.94
2022-08-12T10:30:40.711Z,30.34
2022-08-12T10:32:21.723Z,29.80
2022-08-12T10:34:53.807Z,29.42
2022-08-12T10:38:34.682Z,29.01
2022-08-12T10:40:20.076Z,28.97
2022-08-12T10:43:07.544Z,29.09
2022-08-12T10:45:38.192Z,28.91
2022-08-12T10:48:21.183Z,29.34
2022-08-12T10:51:02.112Z,31.05
2022-08-12T10:53:44.381Z,30.75
2022-08-12T10:56:14.709Z,30.51
2022-08-12T10:58:45.963Z,30.39
2022-08-12T11:01:25.754Z,30.37
2022-08-12T11:04:24.519Z,30.13
2022-08-12T11:07:07.348Z,30.09
2022-08-12T11:10:00.574Z,30.74
2022-08-12T11:12:59.583Z,30.18
2022-08-12T11:16:03.405Z,30.13
2022-08-12T11:18:17.837Z,30.62
2022-08-12T11:20:48.878Z,30.53
2022-08-12T11:23:25.167Z,29.60
2022-08-12T11:26:07.642Z,29.33
2022-08-12T11:28:37.819Z,29.30
2022-08-12T11:31:12.261Z,29.64
2022-08-12T11:34:05.619Z,30.24
2022-08-12T11:36:31.523Z,29.33
2022-08-12T11:39:04.164Z,30.01
2022-08-12T11:41:34.835Z,29.48
2022-08-12T11:44:32.003Z,29.74
2022-08-12T11:46:53.602Z,29.64
2022-08-12T11:49:31.242Z,29.66
2022-08-12T11:52:04.276Z,30.19
2022-08-12T11:54:51.079Z,30.54
2022-08-12T11:58:12.587Z,30.17
2022-08-12T12:02:58.442Z,30.26
2022-08-12T12:05:39.379Z,31.16
2022-08-12T12:08:41.400Z,30.58
2022-08-12T12:11:09.271Z,31.25
2022-08-12T12:14:07.473Z,30.37
2022-08-12T12:16:27.563Z,30.07
2022-08-12T12:18:58.261Z,29.65
2022-08-12T12:21:47.248Z,29.14
2022-08-12T12:24:22.462Z,30.06
2022-08-12T12:27:00.494Z,30.05
2022-08-12T12:30:19.849Z,30.11
2022-08-12T12:32:19.521Z,28.86
2022-08-12T12:35:44.455Z,29.54
2022-08-12T12:38:03.806Z,30.09
2022-08-12T12:40:34.505Z,30.34
2022-08-12T12:43:05.110Z,30.13
2022-08-12T12:45:36.511Z,30.46
2022-08-12T12:48:05.444Z,30.45
2022-08-12T12:50:35.264Z,31.35
2022-08-12T12:53:04.703Z,30.62
2022-08-12T12:55:36.064Z,30.45
2022-08-12T12:58:05.784Z,30.09
2022-08-12T13:00:36.611Z,30.47
2022-08-12T13:03:04.806Z,29.98
2022-08-12T13:05:42.066Z,29.89
2022-08-12T13:08:28.463Z,30.38
2022-08-12T13:11:05.295Z,30.27
2022-08-12T13:14:07.758Z,30.53
2022-08-12T13:16:29.467Z,31.31
2022-08-12T13:18:58.441Z,30.67
2022-08-12T13:21:36.799Z,29.93
2022-08-12T13:24:11.900Z,29.98
2022-08-12T13:26:40.423Z,29.78
2022-08-12T13:29:13.093Z,30.49
2022-08-12T13:31:46.321Z,30.89
2022-08-12T13:34:35.641Z,31.06
2022-08-12T13:37:09.226Z,30.65
2022-08-12T13:39:41.853Z,31.29
2022-08-12T13:42:14.269Z,30.24
2022-08-12T13:45:03.183Z,30.24
2022-08-12T13:47:56.066Z,29.63
2022-08-12T13:50:26.656Z,30.56
2022-08-12T13:52:55.057Z,30.81
2022-08-12T13:55:30.917Z,30.54
2022-08-12T13:58:01.665Z,29.55
2022-08-12T14:00:33.902Z,29.62
2022-08-12T14:03:10.524Z,29.53
2022-08-12T14:05:39.298Z,29.72
2022-08-12T14:08:08.531Z,29.79
2022-08-12T14:10:38.238Z,29.98
2022-08-12T14:13:10.443Z,30.03
2022-08-12T14:15:57.580Z,29.86
2022-08-12T14:18:27.883Z,29.49
2022-08-12T14:20:58.633Z,30.13
2022-08-12T14:24:05.080Z,30.19
2022-08-12T14:26:20.017Z,30.35
2022-08-12T14:28:57.889Z,30.14
2022-08-12T14:31:31.544Z,29.62
2022-08-12T14:34:04.921Z,29.95
2022-08-12T14:36:34.175Z,29.24
2022-08-12T14:39:06.559Z,29.45
2022-08-12T14:41:37.171Z,30.05
2022-08-12T14:44:57.986Z,29.35
2022-08-12T14:47:08.937Z,28.92
2022-08-12T14:50:33.741Z,28.87
2022-08-12T14:53:26.160Z,29.16
2022-08-12T14:58:04.335Z,29.15
2022-08-12T15:00:53.513Z,29.19
2022-08-12T15:03:23.370Z,29.08
2022-08-12T15:06:06.003Z,29.38
2022-08-12T15:08:42.260Z,29.32
2022-08-12T15:11:14.308Z,29.23
2022-08-12T15:13:45.630Z,28.99
2022-08-12T15:16:18.807Z,29.08
2022-08-12T15:18:55.478Z,28.73
2022-08-12T15:22:35.375Z,29.02
2022-08-12T15:24:17.784Z,28.98
2022-08-12T15:26:49.822Z,28.89
2022-08-12T15:29:21.484Z,28.81
2022-08-12T15:32:02.022Z,28.37
2022-08-12T15:34:33.907Z,28.52
2022-08-12T15:37:03.575Z,28.60
2022-08-12T15:39:31.823Z,28.81
2022-08-12T15:42:02.917Z,28.72
2022-08-12T15:44:41.788Z,29.01
2022-08-12T15:47:11.346Z,28.88
2022-08-12T15:49:54.802Z,28.65
2022-08-12T15:52:31.093Z,28.83
2022-08-12T15:55:06.012Z,28.77
2022-08-12T15:57:41.668Z,28.86
2022-08-12T16:00:31.518Z,28.78
2022-08-12T16:02:59.619Z,28.79
2022-08-12T16:06:19.227Z,28.59
2022-08-12T16:08:27.063Z,28.65
2022-08-12T16:10:56.700Z,28.55
2022-08-12T16:13:34.429Z,28.34
2022-08-12T16:16:04.022Z,28.26
2022-08-12T16:18:46.482Z,28.29
2022-08-12T16:21:52.243Z,28.27
2022-08-12T16:24:08.418Z,28.20
2022-08-12T16:26:40.889Z,28.03
2022-08-12T16:29:09.442Z,27.97
2022-08-12T16:31:44.781Z,27.93
2022-08-12T16:34:40.074Z,27.89
2022-08-12T16:37:07.384Z,28.16
2022-08-12T16:40:01.237Z,28.09
2022-08-12T16:42:28.242Z,28.01
2022-08-12T16:44:57.818Z,27.95
2022-08-12T16:47:27.400Z,27.92
2022-08-12T16:50:08.456Z,27.83
2022-08-12T16:52:52.148Z,27.62
2022-08-12T16:55:25.336Z,27.65
2022-08-12T16:57:56.501Z,27.58
2022-08-12T17:00:25.081Z,27.56
2022-08-12T17:02:58.196Z,27.51
2022-08-12T17:05:31.170Z,27.36
2022-08-12T17:08:00.530Z,27.23
2022-08-12T17:10:36.164Z,27.31
2022-08-12T17:13:10.142Z,27.25
2022-08-12T17:15:57.510Z,27.28
2022-08-12T17:18:43.400Z,27.26
2022-08-12T17:21:17.346Z,27.22
2022-08-12T17:23:53.705Z,27.13
2022-08-12T17:26:27.963Z,27.12
2022-08-12T17:28:58.255Z,27.13
2022-08-12T17:32:00.646Z,27.15
2022-08-12T17:34:35.662Z,27.18
2022-08-12T17:37:07.432Z,27.21
2022-08-12T17:40:06.668Z,27.03
2022-08-12T17:42:34.133Z,26.84
2022-08-12T17:45:17.448Z,26.93
2022-08-12T17:48:01.437Z,26.85
2022-08-12T17:50:33.922Z,26.74
2022-08-12T17:53:03.575Z,26.73
2022-08-12T17:55:43.740Z,26.79
2022-08-12T17:58:17.766Z,26.75
2022-08-12T18:00:47.557Z,26.71
2022-08-12T18:04:05.390Z,26.50
2022-08-12T18:06:14.136Z,26.53
2022-08-12T18:08:43.559Z,26.51
2022-08-12T18:12:04.069Z,26.42
2022-08-12T18:14:31.556Z,26.37
2022-08-12T18:17:02.533Z,26.38
2022-08-12T18:20:04.049Z,26.30
2022-08-12T18:22:22.165Z,26.21
2022-08-12T18:25:04.020Z,26.26
2022-08-12T18:27:44.596Z,26.52
2022-08-12T18:30:29.012Z,26.45
2022-08-12T18:33:03.544Z,26.29
2022-08-12T18:35:47.926Z,26.21
2022-08-12T18:38:56.271Z,26.03
2022-08-12T18:41:35.990Z,26.07
2022-08-12T18:44:09.297Z,26.21
2022-08-12T18:46:53.785Z,26.17
2022-08-12T18:49:39.215Z,26.24
2022-08-12T18:52:12.003Z,26.33
2022-08-12T18:54:49.322Z,26.31
2022-08-12T18:58:07.467Z,26.18
2022-08-12T19:00:20.888Z,26.11
2022-08-12T19:02:54.259Z,26.21
2022-08-12T19:05:52.897Z,26.22
2022-08-12T19:08:13.944Z,26.24
2022-08-12T19:10:51.152Z,26.14
2022-08-12T19:13:38.027Z,25.95
2022-08-12T19:16:10.118Z,25.91
2022-08-12T19:18:44.801Z,26.03
2022-08-12T19:21:16.536Z,25.91
2022-08-12T19:24:05.835Z,25.89
2022-08-12T19:26:34.984Z,25.76
2022-08-12T19:29:05.275Z,25.68
2022-08-12T19:31:45.335Z,26.02
2022-08-12T19:37:20.307Z,26.17
2022-08-12T19:40:09.872Z,26.08
2022-08-12T19:42:48.387Z,25.56
2022-08-12T19:45:22.347Z,25.69
2022-08-12T19:47:50.611Z,25.63
2022-08-12T19:50:20.708Z,25.65
2022-08-12T19:52:53.509Z,25.40
2022-08-12T19:55:23.588Z,25.49
2022-08-12T19:58:02.604Z,25.35
2022-08-12T20:00:34.572Z,25.36
2022-08-12T20:03:04.702Z,25.26
2022-08-12T20:06:06.484Z,25.22
2022-08-12T20:08:31.284Z,25.25
2022-08-12T20:12:13.460Z,25.13
2022-08-12T20:14:00.421Z,25.36
2022-08-12T20:17:01.872Z,25.55
2022-08-12T20:20:16.707Z,25.51
2022-08-12T20:22:24.235Z,25.41
2022-08-12T20:24:58.040Z,25.47
2022-08-12T20:28:02.656Z,25.41
2022-08-12T20:30:52.710Z,25.31
2022-08-12T20:33:17.378Z,25.24
2022-08-12T20:36:07.045Z,25.24
2022-08-12T20:38:40.786Z,25.25
2022-08-12T20:41:17.833Z,25.20
2022-08-12T20:43:49.447Z,25.27
2022-08-12T20:46:19.162Z,25.14
2022-08-12T20:48:54.984Z,25.08
2022-08-12T20:51:27.751Z,25.02
2022-08-12T20:54:00.282Z,24.83
2022-08-12T20:56:34.694Z,24.75
2022-08-12T20:59:04.681Z,24.61
2022-08-12T21:01:46.632Z,24.64
2022-08-12T21:04:35.135Z,24.51
2022-08-12T21:07:09.277Z,24.58
2022-08-12T21:09:42.223Z,24.61
2022-08-12T21:12:28.109Z,24.54
2022-08-12T21:15:17.454Z,24.55
2022-08-12T21:18:08.638Z,24.48
2022-08-12T21:20:38.003Z,24.45
2022-08-12T21:23:06.453Z,24.43
2022-08-12T21:25:45.659Z,24.35
2022-08-12T21:28:14.921Z,24.32
2022-08-12T21:31:11.484Z,24.24
2022-08-12T21:33:58.624Z,24.25
2022-08-12T21:36:22.953Z,24.24
2022-08-12T21:39:18.375Z,24.31
2022-08-12T21:41:51.725Z,24.26
2022-08-12T21:44:32.569Z,24.24
2022-08-12T21:47:20.206Z,24.28
2022-08-12T21:49:55.236Z,24.34
2022-08-12T21:52:28.338Z,24.43
2022-08-12T21:55:02.716Z,24.32
2022-08-12T21:57:36.467Z,24.20
2022-08-12T22:00:19.099Z,24.08
2022-08-12T22:03:04.648Z,24.08
2022-08-12T22:05:47.040Z,23.84
2022-08-12T22:08:22.066Z,23.87
2022-08-12T22:10:56.413Z,23.98
2022-08-12T22:14:07.183Z,23.90
2022-08-12T22:16:15.751Z,23.55
2022-08-12T22:18:50.216Z,23.62
2022-08-12T22:21:22.049Z,23.68
2022-08-12T22:24:04.925Z,23.69
2022-08-12T22:26:37.675Z,23.55
2022-08-12T22:29:26.748Z,23.68
2022-08-12T22:31:55.749Z,23.73
2022-08-12T22:34:29.408Z,23.82
2022-08-12T22:36:58.606Z,23.67
2022-08-12T22:39:27.229Z,23.82
2022-08-12T22:42:12.063Z,23.74
2022-08-12T22:44:59.279Z,23.70
2022-08-12T22:47:54.373Z,23.74
2022-08-12T22:50:27.366Z,23.90
2022-08-12T22:53:14.957Z,24.00
2022-08-12T22:56:05.774Z,24.07
2022-08-12T22:58:40.162Z,24.14
2022-08-12T23:01:13.793Z,23.91
2022-08-12T23:03:51.108Z,23.80
2022-08-12T23:06:24.063Z,23.83
2022-08-12T23:08:52.917Z,23.89
2022-08-12T23:11:23.520Z,23.97
2022-08-12T23:13:56.416Z,23.83
2022-08-12T23:16:31.832Z,23.74
2022-08-12T23:19:10.443Z,23.84
2022-08-12T23:22:06.278Z,23.75
2022-08-12T23:24:38.428Z,23.67
2022-08-12T23:27:44.277Z,23.45
2022-08-12T23:30:19.269Z,23.40
2022-08-12T23:32:59.736Z,23.41
2022-08-12T23:35:53.540Z,23.48
2022-08-12T23:38:30.188Z,23.55
2022-08-12T23:41:01.320Z,23.61
2022-08-12T23:43:39.996Z,23.54
2022-08-12T23:46:10.800Z,23.37
2022-08-12T23:48:40.943Z,23.39
2022-08-12T23:51:22.055Z,23.45
2022-08-12T23:53:54.703Z,23.26
2022-08-12T23:56:25.224Z,23.26
2022-08-12T23:58:57.510Z,23.31
